sensor_id;sensor_type;location;lat;lon;timestamp;P1;durP1;ratioP1;P2;durP2;ratioP2
9465;SDS011;4771;48.726;9.006;2022-11-18T00:02:21;1.00;;;0.90;;
9465;SDS011;4771;48.726;9.006;2022-11-18T00:04:48;1.47;;;0.90;;
9465;SDS011;4771;48.726;9.006;2022-11-18T00:07:15;1.30;;;1.00;;
9465;SDS011;4771;48.726;9.006;2022-11-18T00:09:43;1.20;;;0.90;;
9465;SDS011;4771;48.726;9.006;2022-11-18T00:12:09;1.50;;;0.80;;
9465;SDS011;4771;48.726;9.006;2022-11-18T00:14:55;1.40;;;1.07;;
9465;SDS011;4771;48.726;9.006;2022-11-18T00:17:23;1.20;;;0.90;;
9465;SDS011;4771;48.726;9.006;2022-11-18T00:19:50;1.63;;;1.03;;
9465;SDS011;4771;48.726;9.006;2022-11-18T00:22:17;1.60;;;1.10;;
9465;SDS011;4771;48.726;9.006;2022-11-18T00:24:44;0.90;;;0.90;;
9465;SDS011;4771;48.726;9.006;2022-11-18T00:27:11;1.40;;;1.17;;
9465;SDS011;4771;48.726;9.006;2022-11-18T00:29:38;1.93;;;1.40;;
9465;SDS011;4771;48.726;9.006;2022-11-18T00:32:06;2.03;;;1.30;;
9465;SDS011;4771;48.726;9.006;2022-11-18T00:34:33;1.50;;;1.20;;
9465;SDS011;4771;48.726;9.006;2022-11-18T00:37:00;1.73;;;1.10;;
9465;SDS011;4771;48.726;9.006;2022-11-18T00:39:28;1.57;;;1.20;;
9465;SDS011;4771;48.726;9.006;2022-11-18T00:41:55;1.60;;;1.47;;
9465;SDS011;4771;48.726;9.006;2022-11-18T00:44:39;1.43;;;1.00;;
9465;SDS011;4771;48.726;9.006;2022-11-18T00:47:07;1.27;;;0.97;;
9465;SDS011;4771;48.726;9.006;2022-11-18T00:49:34;1.57;;;1.20;;
9465;SDS011;4771;48.726;9.006;2022-11-18T00:52:01;2.00;;;1.00;;
9465;SDS011;4771;48.726;9.006;2022-11-18T00:54:29;1.10;;;1.00;;
9465;SDS011;4771;48.726;9.006;2022-11-18T00:56:56;1.40;;;1.00;;
9465;SDS011;4771;48.726;9.006;2022-11-18T00:59:23;1.37;;;1.20;;
9465;SDS011;4771;48.726;9.006;2022-11-18T01:01:50;1.10;;;1.00;;
9465;SDS011;4771;48.726;9.006;2022-11-18T01:04:19;1.77;;;1.03;;
9465;SDS011;4771;48.726;9.006;2022-11-18T01:06:46;1.00;;;0.90;;
9465;SDS011;4771;48.726;9.006;2022-11-18T01:09:13;0.80;;;0.80;;
9465;SDS011;4771;48.726;9.006;2022-11-18T01:11:40;1.30;;;0.90;;
9465;SDS011;4771;48.726;9.006;2022-11-18T01:14:24;3.37;;;0.90;;
9465;SDS011;4771;48.726;9.006;2022-11-18T01:16:52;1.10;;;0.90;;
9465;SDS011;4771;48.726;9.006;2022-11-18T01:19:22;1.00;;;0.90;;
9465;SDS011;4771;48.726;9.006;2022-11-18T01:21:49;0.93;;;0.80;;
9465;SDS011;4771;48.726;9.006;2022-11-18T01:24:16;2.23;;;0.90;;
9465;SDS011;4771;48.726;9.006;2022-11-18T01:26:43;1.00;;;0.90;;
9465;SDS011;4771;48.726;9.006;2022-11-18T01:29:10;1.00;;;0.90;;
9465;SDS011;4771;48.726;9.006;2022-11-18T01:31:37;1.10;;;0.90;;
9465;SDS011;4771;48.726;9.006;2022-11-18T01:34:04;1.40;;;0.80;;
9465;SDS011;4771;48.726;9.006;2022-11-18T01:36:33;1.47;;;0.83;;
9465;SDS011;4771;48.726;9.006;2022-11-18T01:39:00;0.97;;;0.70;;
9465;SDS011;4771;48.726;9.006;2022-11-18T01:41:27;0.80;;;0.80;;
9465;SDS011;4771;48.726;9.006;2022-11-18T01:43:54;0.93;;;0.80;;
9465;SDS011;4771;48.726;9.006;2022-11-18T01:46:24;1.10;;;0.90;;
9465;SDS011;4771;48.726;9.006;2022-11-18T01:48:53;1.03;;;0.83;;
9465;SDS011;4771;48.726;9.006;2022-11-18T01:51:24;1.30;;;1.00;;
9465;SDS011;4771;48.726;9.006;2022-11-18T01:53:56;2.93;;;1.10;;
9465;SDS011;4771;48.726;9.006;2022-11-18T01:56:30;1.03;;;0.90;;
9465;SDS011;4771;48.726;9.006;2022-11-18T01:59:03;1.20;;;0.90;;
9465;SDS011;4771;48.726;9.006;2022-11-18T02:01:33;1.00;;;0.87;;
9465;SDS011;4771;48.726;9.006;2022-11-18T02:04:00;2.27;;;0.90;;
9465;SDS011;4771;48.726;9.006;2022-11-18T02:06:28;1.33;;;1.00;;
9465;SDS011;4771;48.726;9.006;2022-11-18T02:08:56;1.10;;;0.93;;
9465;SDS011;4771;48.726;9.006;2022-11-18T02:11:23;1.20;;;1.00;;
9465;SDS011;4771;48.726;9.006;2022-11-18T02:14:08;2.17;;;1.00;;
9465;SDS011;4771;48.726;9.006;2022-11-18T02:16:41;1.30;;;0.93;;
9465;SDS011;4771;48.726;9.006;2022-11-18T02:19:24;1.97;;;1.20;;
9465;SDS011;4771;48.726;9.006;2022-11-18T02:22:09;2.27;;;1.03;;
9465;SDS011;4771;48.726;9.006;2022-11-18T02:24:50;5.03;;;1.40;;
9465;SDS011;4771;48.726;9.006;2022-11-18T02:30:21;2.00;;;1.20;;
9465;SDS011;4771;48.726;9.006;2022-11-18T02:32:50;1.67;;;1.37;;
9465;SDS011;4771;48.726;9.006;2022-11-18T02:35:22;1.37;;;1.00;;
9465;SDS011;4771;48.726;9.006;2022-11-18T02:37:56;1.20;;;1.10;;
9465;SDS011;4771;48.726;9.006;2022-11-18T02:40:26;2.07;;;1.07;;
9465;SDS011;4771;48.726;9.006;2022-11-18T02:42:57;1.00;;;1.00;;
9465;SDS011;4771;48.726;9.006;2022-11-18T02:45:31;1.67;;;1.10;;
9465;SDS011;4771;48.726;9.006;2022-11-18T02:48:01;3.00;;;1.50;;
9465;SDS011;4771;48.726;9.006;2022-11-18T02:50:30;1.17;;;0.90;;
9465;SDS011;4771;48.726;9.006;2022-11-18T02:53:01;3.20;;;1.27;;
9465;SDS011;4771;48.726;9.006;2022-11-18T02:55:31;1.47;;;1.23;;
9465;SDS011;4771;48.726;9.006;2022-11-18T02:58:00;1.50;;;1.20;;
9465;SDS011;4771;48.726;9.006;2022-11-18T03:00:31;1.33;;;1.10;;
9465;SDS011;4771;48.726;9.006;2022-11-18T03:02:59;1.07;;;0.90;;
9465;SDS011;4771;48.726;9.006;2022-11-18T03:05:45;1.20;;;1.10;;
9465;SDS011;4771;48.726;9.006;2022-11-18T03:08:18;2.57;;;1.10;;
9465;SDS011;4771;48.726;9.006;2022-11-18T03:10:51;1.37;;;1.20;;
9465;SDS011;4771;48.726;9.006;2022-11-18T03:13:31;1.10;;;1.00;;
9465;SDS011;4771;48.726;9.006;2022-11-18T03:16:09;1.60;;;1.20;;
9465;SDS011;4771;48.726;9.006;2022-11-18T03:18:41;1.37;;;1.10;;
9465;SDS011;4771;48.726;9.006;2022-11-18T03:21:13;1.17;;;1.00;;
9465;SDS011;4771;48.726;9.006;2022-11-18T03:23:44;3.20;;;1.00;;
9465;SDS011;4771;48.726;9.006;2022-11-18T03:26:17;1.30;;;1.10;;
9465;SDS011;4771;48.726;9.006;2022-11-18T03:28:48;4.10;;;1.30;;
9465;SDS011;4771;48.726;9.006;2022-11-18T03:31:20;1.20;;;1.10;;
9465;SDS011;4771;48.726;9.006;2022-11-18T03:33:52;1.60;;;1.10;;
9465;SDS011;4771;48.726;9.006;2022-11-18T03:36:23;1.67;;;1.00;;
9465;SDS011;4771;48.726;9.006;2022-11-18T03:38:54;2.90;;;1.00;;
9465;SDS011;4771;48.726;9.006;2022-11-18T03:41:25;2.03;;;1.10;;
9465;SDS011;4771;48.726;9.006;2022-11-18T03:43:56;2.17;;;1.10;;
9465;SDS011;4771;48.726;9.006;2022-11-18T03:46:30;7.47;;;1.17;;
9465;SDS011;4771;48.726;9.006;2022-11-18T03:49:01;0.93;;;0.70;;
9465;SDS011;4771;48.726;9.006;2022-11-18T03:51:32;1.37;;;0.80;;
9465;SDS011;4771;48.726;9.006;2022-11-18T03:54:09;0.83;;;0.83;;
9465;SDS011;4771;48.726;9.006;2022-11-18T03:56:41;0.90;;;0.70;;
9465;SDS011;4771;48.726;9.006;2022-11-18T03:59:12;0.73;;;0.67;;
9465;SDS011;4771;48.726;9.006;2022-11-18T04:01:44;0.83;;;0.70;;
9465;SDS011;4771;48.726;9.006;2022-11-18T04:04:17;1.23;;;0.80;;
9465;SDS011;4771;48.726;9.006;2022-11-18T04:06:46;1.77;;;0.77;;
9465;SDS011;4771;48.726;9.006;2022-11-18T04:09:17;0.70;;;0.70;;
9465;SDS011;4771;48.726;9.006;2022-11-18T04:11:49;1.43;;;0.90;;
9465;SDS011;4771;48.726;9.006;2022-11-18T04:14:29;2.27;;;0.80;;
9465;SDS011;4771;48.726;9.006;2022-11-18T04:17:02;1.00;;;0.70;;
9465;SDS011;4771;48.726;9.006;2022-11-18T04:19:33;0.90;;;0.70;;
9465;SDS011;4771;48.726;9.006;2022-11-18T04:22:00;0.53;;;0.50;;
9465;SDS011;4771;48.726;9.006;2022-11-18T04:24:26;1.43;;;0.77;;
9465;SDS011;4771;48.726;9.006;2022-11-18T04:26:53;0.60;;;0.60;;
9465;SDS011;4771;48.726;9.006;2022-11-18T04:29:20;0.93;;;0.60;;
9465;SDS011;4771;48.726;9.006;2022-11-18T04:31:47;1.17;;;0.70;;
9465;SDS011;4771;48.726;9.006;2022-11-18T04:34:16;0.60;;;0.60;;
9465;SDS011;4771;48.726;9.006;2022-11-18T04:36:43;0.57;;;0.57;;
9465;SDS011;4771;48.726;9.006;2022-11-18T04:39:10;0.60;;;0.60;;
9465;SDS011;4771;48.726;9.006;2022-11-18T04:41:37;1.53;;;0.70;;
9465;SDS011;4771;48.726;9.006;2022-11-18T04:44:22;0.50;;;0.50;;
9465;SDS011;4771;48.726;9.006;2022-11-18T04:46:50;0.50;;;0.50;;
9465;SDS011;4771;48.726;9.006;2022-11-18T04:49:19;0.60;;;0.60;;
9465;SDS011;4771;48.726;9.006;2022-11-18T04:51:46;0.73;;;0.60;;
9465;SDS011;4771;48.726;9.006;2022-11-18T04:54:13;0.93;;;0.70;;
9465;SDS011;4771;48.726;9.006;2022-11-18T04:56:41;1.10;;;0.73;;
9465;SDS011;4771;48.726;9.006;2022-11-18T04:59:09;2.80;;;0.70;;
9465;SDS011;4771;48.726;9.006;2022-11-18T05:01:36;1.33;;;0.80;;
9465;SDS011;4771;48.726;9.006;2022-11-18T05:04:04;0.70;;;0.70;;
9465;SDS011;4771;48.726;9.006;2022-11-18T05:06:33;1.90;;;0.87;;
9465;SDS011;4771;48.726;9.006;2022-11-18T05:09:00;0.90;;;0.70;;
9465;SDS011;4771;48.726;9.006;2022-11-18T05:11:27;0.87;;;0.60;;
9465;SDS011;4771;48.726;9.006;2022-11-18T05:14:11;2.40;;;0.70;;
9465;SDS011;4771;48.726;9.006;2022-11-18T05:16:39;0.57;;;0.57;;
9465;SDS011;4771;48.726;9.006;2022-11-18T05:19:06;0.63;;;0.63;;
9465;SDS011;4771;48.726;9.006;2022-11-18T05:21:34;0.70;;;0.70;;
9465;SDS011;4771;48.726;9.006;2022-11-18T05:24:01;1.57;;;0.70;;
9465;SDS011;4771;48.726;9.006;2022-11-18T05:26:30;0.70;;;0.70;;
9465;SDS011;4771;48.726;9.006;2022-11-18T05:28:57;0.40;;;0.40;;
9465;SDS011;4771;48.726;9.006;2022-11-18T05:31:24;0.80;;;0.70;;
9465;SDS011;4771;48.726;9.006;2022-11-18T05:33:51;0.70;;;0.70;;
9465;SDS011;4771;48.726;9.006;2022-11-18T05:36:19;0.83;;;0.70;;
9465;SDS011;4771;48.726;9.006;2022-11-18T05:38:47;0.90;;;0.90;;
9465;SDS011;4771;48.726;9.006;2022-11-18T05:41:15;1.30;;;1.10;;
9465;SDS011;4771;48.726;9.006;2022-11-18T05:43:56;1.53;;;1.20;;
9465;SDS011;4771;48.726;9.006;2022-11-18T05:46:23;1.43;;;1.17;;
9465;SDS011;4771;48.726;9.006;2022-11-18T05:48:50;1.13;;;1.03;;
9465;SDS011;4771;48.726;9.006;2022-11-18T05:51:18;1.07;;;0.97;;
9465;SDS011;4771;48.726;9.006;2022-11-18T05:53:45;0.90;;;0.90;;
9465;SDS011;4771;48.726;9.006;2022-11-18T05:56:17;1.07;;;0.97;;
9465;SDS011;4771;48.726;9.006;2022-11-18T05:58:47;1.80;;;0.80;;
9465;SDS011;4771;48.726;9.006;2022-11-18T06:01:14;0.80;;;0.80;;
9465;SDS011;4771;48.726;9.006;2022-11-18T06:03:47;1.10;;;1.00;;
9465;SDS011;4771;48.726;9.006;2022-11-18T06:06:14;2.20;;;0.90;;
9465;SDS011;4771;48.726;9.006;2022-11-18T06:08:49;1.67;;;0.70;;
9465;SDS011;4771;48.726;9.006;2022-11-18T06:11:22;1.17;;;0.60;;
9465;SDS011;4771;48.726;9.006;2022-11-18T06:13:50;1.07;;;0.93;;
9465;SDS011;4771;48.726;9.006;2022-11-18T06:16:24;0.63;;;0.63;;
9465;SDS011;4771;48.726;9.006;2022-11-18T06:18:55;0.93;;;0.70;;
9465;SDS011;4771;48.726;9.006;2022-11-18T06:21:23;0.80;;;0.80;;
9465;SDS011;4771;48.726;9.006;2022-11-18T06:23:52;0.63;;;0.63;;
9465;SDS011;4771;48.726;9.006;2022-11-18T06:26:19;0.90;;;0.77;;
9465;SDS011;4771;48.726;9.006;2022-11-18T06:28:46;0.70;;;0.70;;
9465;SDS011;4771;48.726;9.006;2022-11-18T06:31:14;0.93;;;0.93;;
9465;SDS011;4771;48.726;9.006;2022-11-18T06:33:41;1.30;;;1.07;;
9465;SDS011;4771;48.726;9.006;2022-11-18T06:36:08;1.40;;;1.20;;
9465;SDS011;4771;48.726;9.006;2022-11-18T06:38:36;2.63;;;1.43;;
9465;SDS011;4771;48.726;9.006;2022-11-18T06:41:04;1.63;;;1.40;;
9465;SDS011;4771;48.726;9.006;2022-11-18T06:43:31;2.40;;;1.10;;
9465;SDS011;4771;48.726;9.006;2022-11-18T06:46:03;1.77;;;1.10;;
9465;SDS011;4771;48.726;9.006;2022-11-18T06:48:50;0.90;;;0.90;;
9465;SDS011;4771;48.726;9.006;2022-11-18T06:51:17;1.30;;;1.00;;
9465;SDS011;4771;48.726;9.006;2022-11-18T06:53:44;1.40;;;0.90;;
9465;SDS011;4771;48.726;9.006;2022-11-18T06:56:13;2.13;;;1.00;;
9465;SDS011;4771;48.726;9.006;2022-11-18T06:58:41;1.60;;;1.03;;
9465;SDS011;4771;48.726;9.006;2022-11-18T07:01:09;1.00;;;0.90;;
9465;SDS011;4771;48.726;9.006;2022-11-18T07:03:36;1.13;;;0.90;;
9465;SDS011;4771;48.726;9.006;2022-11-18T07:06:04;1.17;;;1.07;;
9465;SDS011;4771;48.726;9.006;2022-11-18T07:08:32;1.40;;;1.00;;
9465;SDS011;4771;48.726;9.006;2022-11-18T07:11:00;1.57;;;1.20;;
9465;SDS011;4771;48.726;9.006;2022-11-18T07:13:30;1.00;;;1.00;;
9465;SDS011;4771;48.726;9.006;2022-11-18T07:16:00;1.20;;;1.10;;
9465;SDS011;4771;48.726;9.006;2022-11-18T07:18:29;0.80;;;0.80;;
9465;SDS011;4771;48.726;9.006;2022-11-18T07:20:59;0.80;;;0.80;;
9465;SDS011;4771;48.726;9.006;2022-11-18T07:23:27;0.80;;;0.80;;
9465;SDS011;4771;48.726;9.006;2022-11-18T07:25:54;0.70;;;0.70;;
9465;SDS011;4771;48.726;9.006;2022-11-18T07:28:21;3.50;;;0.90;;
9465;SDS011;4771;48.726;9.006;2022-11-18T07:30:50;0.87;;;0.80;;
9465;SDS011;4771;48.726;9.006;2022-11-18T07:33:17;0.80;;;0.80;;
9465;SDS011;4771;48.726;9.006;2022-11-18T07:35:44;1.60;;;0.87;;
9465;SDS011;4771;48.726;9.006;2022-11-18T07:38:11;0.83;;;0.83;;
9465;SDS011;4771;48.726;9.006;2022-11-18T07:40:38;1.00;;;0.90;;
9465;SDS011;4771;48.726;9.006;2022-11-18T07:43:05;3.37;;;0.80;;
9465;SDS011;4771;48.726;9.006;2022-11-18T07:45:32;0.90;;;0.90;;
9465;SDS011;4771;48.726;9.006;2022-11-18T07:48:00;1.90;;;0.90;;
9465;SDS011;4771;48.726;9.006;2022-11-18T07:50:27;3.17;;;1.00;;
9465;SDS011;4771;48.726;9.006;2022-11-18T07:52:55;1.90;;;1.10;;
9465;SDS011;4771;48.726;9.006;2022-11-18T07:55:22;1.90;;;0.83;;
9465;SDS011;4771;48.726;9.006;2022-11-18T07:57:49;2.03;;;0.80;;
9465;SDS011;4771;48.726;9.006;2022-11-18T08:00:16;0.90;;;0.80;;
9465;SDS011;4771;48.726;9.006;2022-11-18T08:02:44;2.13;;;0.70;;
9465;SDS011;4771;48.726;9.006;2022-11-18T08:05:16;0.73;;;0.73;;
9465;SDS011;4771;48.726;9.006;2022-11-18T08:07:43;2.33;;;0.70;;
9465;SDS011;4771;48.726;9.006;2022-11-18T08:10:10;1.20;;;0.70;;
9465;SDS011;4771;48.726;9.006;2022-11-18T08:12:37;1.00;;;0.97;;
9465;SDS011;4771;48.726;9.006;2022-11-18T08:15:04;0.80;;;0.80;;
9465;SDS011;4771;48.726;9.006;2022-11-18T08:17:32;2.70;;;0.80;;
9465;SDS011;4771;48.726;9.006;2022-11-18T08:19:59;1.47;;;0.87;;
9465;SDS011;4771;48.726;9.006;2022-11-18T08:22:28;1.47;;;0.87;;
9465;SDS011;4771;48.726;9.006;2022-11-18T08:24:54;1.10;;;1.00;;
9465;SDS011;4771;48.726;9.006;2022-11-18T08:27:21;2.23;;;1.00;;
9465;SDS011;4771;48.726;9.006;2022-11-18T08:29:48;2.20;;;0.90;;
9465;SDS011;4771;48.726;9.006;2022-11-18T08:32:15;0.87;;;0.87;;
9465;SDS011;4771;48.726;9.006;2022-11-18T08:34:42;0.97;;;0.97;;
9465;SDS011;4771;48.726;9.006;2022-11-18T08:37:09;1.60;;;1.00;;
9465;SDS011;4771;48.726;9.006;2022-11-18T08:39:38;0.90;;;0.90;;
9465;SDS011;4771;48.726;9.006;2022-11-18T08:42:05;1.80;;;0.93;;
9465;SDS011;4771;48.726;9.006;2022-11-18T08:44:32;0.60;;;0.60;;
9465;SDS011;4771;48.726;9.006;2022-11-18T08:46:59;1.07;;;0.80;;
9465;SDS011;4771;48.726;9.006;2022-11-18T08:49:26;1.00;;;0.90;;
9465;SDS011;4771;48.726;9.006;2022-11-18T08:51:53;10.87;;;1.40;;
9465;SDS011;4771;48.726;9.006;2022-11-18T08:54:20;0.80;;;0.80;;
9465;SDS011;4771;48.726;9.006;2022-11-18T08:56:49;1.20;;;0.87;;
9465;SDS011;4771;48.726;9.006;2022-11-18T08:59:16;1.03;;;0.93;;
9465;SDS011;4771;48.726;9.006;2022-11-18T09:01:44;2.10;;;1.10;;
9465;SDS011;4771;48.726;9.006;2022-11-18T09:04:12;1.10;;;1.00;;
9465;SDS011;4771;48.726;9.006;2022-11-18T09:06:39;2.57;;;1.50;;
9465;SDS011;4771;48.726;9.006;2022-11-18T09:09:06;1.10;;;1.00;;
9465;SDS011;4771;48.726;9.006;2022-11-18T09:11:33;1.30;;;1.13;;
9465;SDS011;4771;48.726;9.006;2022-11-18T09:14:04;2.23;;;1.13;;
9465;SDS011;4771;48.726;9.006;2022-11-18T09:16:32;1.40;;;1.20;;
9465;SDS011;4771;48.726;9.006;2022-11-18T09:18:59;1.73;;;0.90;;
9465;SDS011;4771;48.726;9.006;2022-11-18T09:21:26;2.47;;;1.20;;
9465;SDS011;4771;48.726;9.006;2022-11-18T09:23:53;1.20;;;1.10;;
9465;SDS011;4771;48.726;9.006;2022-11-18T09:26:21;2.40;;;1.80;;
9465;SDS011;4771;48.726;9.006;2022-11-18T09:28:49;3.03;;;1.53;;
9465;SDS011;4771;48.726;9.006;2022-11-18T09:31:20;1.87;;;1.47;;
9465;SDS011;4771;48.726;9.006;2022-11-18T09:33:47;2.93;;;1.70;;
9465;SDS011;4771;48.726;9.006;2022-11-18T09:36:14;1.50;;;1.10;;
9465;SDS011;4771;48.726;9.006;2022-11-18T09:38:42;1.53;;;1.20;;
9465;SDS011;4771;48.726;9.006;2022-11-18T09:41:15;1.90;;;1.50;;
9465;SDS011;4771;48.726;9.006;2022-11-18T09:43:58;2.20;;;1.30;;
9465;SDS011;4771;48.726;9.006;2022-11-18T09:46:35;1.40;;;1.17;;
9465;SDS011;4771;48.726;9.006;2022-11-18T09:49:13;3.23;;;1.30;;
9465;SDS011;4771;48.726;9.006;2022-11-18T09:51:45;1.10;;;1.00;;
9465;SDS011;4771;48.726;9.006;2022-11-18T09:54:16;1.53;;;1.20;;
9465;SDS011;4771;48.726;9.006;2022-11-18T09:56:45;1.10;;;1.00;;
9465;SDS011;4771;48.726;9.006;2022-11-18T09:59:13;2.30;;;1.20;;
9465;SDS011;4771;48.726;9.006;2022-11-18T10:01:44;1.93;;;1.27;;
9465;SDS011;4771;48.726;9.006;2022-11-18T10:04:12;2.13;;;1.50;;
9465;SDS011;4771;48.726;9.006;2022-11-18T10:06:40;2.17;;;1.57;;
9465;SDS011;4771;48.726;9.006;2022-11-18T10:09:10;6.20;;;1.77;;
9465;SDS011;4771;48.726;9.006;2022-11-18T10:11:51;5.93;;;2.70;;
9465;SDS011;4771;48.726;9.006;2022-11-18T10:14:42;3.60;;;2.67;;
9465;SDS011;4771;48.726;9.006;2022-11-18T10:17:26;5.83;;;1.90;;
9465;SDS011;4771;48.726;9.006;2022-11-18T10:20:03;4.03;;;1.50;;
9465;SDS011;4771;48.726;9.006;2022-11-18T10:22:47;1.40;;;1.30;;
9465;SDS011;4771;48.726;9.006;2022-11-18T10:25:19;4.33;;;1.90;;
9465;SDS011;4771;48.726;9.006;2022-11-18T10:27:48;3.00;;;1.70;;
9465;SDS011;4771;48.726;9.006;2022-11-18T10:30:16;1.80;;;1.13;;
9465;SDS011;4771;48.726;9.006;2022-11-18T10:32:56;1.67;;;1.20;;
9465;SDS011;4771;48.726;9.006;2022-11-18T10:35:27;4.20;;;1.40;;
9465;SDS011;4771;48.726;9.006;2022-11-18T10:37:59;2.57;;;1.30;;
9465;SDS011;4771;48.726;9.006;2022-11-18T10:40:28;1.47;;;1.00;;
9465;SDS011;4771;48.726;9.006;2022-11-18T10:42:56;1.60;;;1.30;;
9465;SDS011;4771;48.726;9.006;2022-11-18T10:45:24;4.27;;;1.10;;
9465;SDS011;4771;48.726;9.006;2022-11-18T10:47:58;8.53;;;1.30;;
9465;SDS011;4771;48.726;9.006;2022-11-18T10:50:28;2.07;;;1.33;;
9465;SDS011;4771;48.726;9.006;2022-11-18T10:52:57;2.57;;;1.50;;
9465;SDS011;4771;48.726;9.006;2022-11-18T10:55:25;1.90;;;1.40;;
9465;SDS011;4771;48.726;9.006;2022-11-18T10:57:54;1.83;;;1.30;;
9465;SDS011;4771;48.726;9.006;2022-11-18T11:00:35;1.53;;;1.30;;
9465;SDS011;4771;48.726;9.006;2022-11-18T11:03:21;2.57;;;1.30;;
9465;SDS011;4771;48.726;9.006;2022-11-18T11:08:58;1.97;;;1.27;;
9465;SDS011;4771;48.726;9.006;2022-11-18T11:11:27;3.67;;;1.17;;
9465;SDS011;4771;48.726;9.006;2022-11-18T11:14:01;1.87;;;1.10;;
9465;SDS011;4771;48.726;9.006;2022-11-18T11:16:35;1.50;;;1.03;;
9465;SDS011;4771;48.726;9.006;2022-11-18T11:19:10;1.13;;;0.93;;
9465;SDS011;4771;48.726;9.006;2022-11-18T11:21:38;2.23;;;0.90;;
9465;SDS011;4771;48.726;9.006;2022-11-18T11:24:08;2.37;;;0.90;;
9465;SDS011;4771;48.726;9.006;2022-11-18T11:26:38;2.10;;;1.03;;
9465;SDS011;4771;48.726;9.006;2022-11-18T11:29:17;1.50;;;1.00;;
9465;SDS011;4771;48.726;9.006;2022-11-18T11:31:56;1.50;;;1.20;;
9465;SDS011;4771;48.726;9.006;2022-11-18T11:34:39;1.10;;;0.90;;
9465;SDS011;4771;48.726;9.006;2022-11-18T11:37:13;0.90;;;0.80;;
9465;SDS011;4771;48.726;9.006;2022-11-18T11:39:47;1.47;;;0.90;;
9465;SDS011;4771;48.726;9.006;2022-11-18T11:42:31;3.03;;;1.10;;
9465;SDS011;4771;48.726;9.006;2022-11-18T11:45:12;3.17;;;1.00;;
9465;SDS011;4771;48.726;9.006;2022-11-18T11:47:48;2.63;;;1.00;;
9465;SDS011;4771;48.726;9.006;2022-11-18T11:50:39;1.47;;;1.00;;
9465;SDS011;4771;48.726;9.006;2022-11-18T11:53:21;1.20;;;0.97;;
9465;SDS011;4771;48.726;9.006;2022-11-18T11:55:58;1.90;;;1.17;;
9465;SDS011;4771;48.726;9.006;2022-11-18T11:58:41;3.97;;;1.20;;
9465;SDS011;4771;48.726;9.006;2022-11-18T12:01:25;1.20;;;1.10;;
9465;SDS011;4771;48.726;9.006;2022-11-18T12:03:57;2.33;;;1.20;;
9465;SDS011;4771;48.726;9.006;2022-11-18T12:06:35;1.80;;;1.10;;
9465;SDS011;4771;48.726;9.006;2022-11-18T12:09:03;2.50;;;1.23;;
9465;SDS011;4771;48.726;9.006;2022-11-18T12:11:39;1.57;;;1.07;;
9465;SDS011;4771;48.726;9.006;2022-11-18T12:14:10;3.57;;;1.87;;
9465;SDS011;4771;48.726;9.006;2022-11-18T12:16:47;3.10;;;1.30;;
9465;SDS011;4771;48.726;9.006;2022-11-18T12:19:18;2.30;;;1.40;;
9465;SDS011;4771;48.726;9.006;2022-11-18T12:21:58;2.63;;;1.10;;
9465;SDS011;4771;48.726;9.006;2022-11-18T12:24:29;1.83;;;1.10;;
9465;SDS011;4771;48.726;9.006;2022-11-18T12:26:58;4.60;;;1.30;;
9465;SDS011;4771;48.726;9.006;2022-11-18T12:29:29;2.03;;;1.30;;
9465;SDS011;4771;48.726;9.006;2022-11-18T12:32:02;3.37;;;1.43;;
9465;SDS011;4771;48.726;9.006;2022-11-18T12:34:41;2.10;;;1.40;;
9465;SDS011;4771;48.726;9.006;2022-11-18T12:40:32;2.30;;;1.30;;
9465;SDS011;4771;48.726;9.006;2022-11-18T12:43:01;1.93;;;1.50;;
9465;SDS011;4771;48.726;9.006;2022-11-18T12:45:51;1.83;;;1.30;;
9465;SDS011;4771;48.726;9.006;2022-11-18T12:54:24;1.47;;;1.23;;
9465;SDS011;4771;48.726;9.006;2022-11-18T12:56:57;1.87;;;1.30;;
9465;SDS011;4771;48.726;9.006;2022-11-18T12:59:27;2.20;;;1.37;;
9465;SDS011;4771;48.726;9.006;2022-11-18T13:02:16;3.13;;;1.30;;
9465;SDS011;4771;48.726;9.006;2022-11-18T13:07:28;2.20;;;1.10;;
9465;SDS011;4771;48.726;9.006;2022-11-18T13:10:19;3.50;;;1.30;;
9465;SDS011;4771;48.726;9.006;2022-11-18T13:12:49;2.80;;;1.60;;
9465;SDS011;4771;48.726;9.006;2022-11-18T13:15:17;1.80;;;1.30;;
9465;SDS011;4771;48.726;9.006;2022-11-18T13:18:05;3.50;;;1.60;;
9465;SDS011;4771;48.726;9.006;2022-11-18T13:20:37;2.60;;;1.50;;
9465;SDS011;4771;48.726;9.006;2022-11-18T13:23:18;3.67;;;1.33;;
9465;SDS011;4771;48.726;9.006;2022-11-18T13:26:14;5.53;;;1.40;;
9465;SDS011;4771;48.726;9.006;2022-11-18T13:28:56;3.17;;;1.50;;
9465;SDS011;4771;48.726;9.006;2022-11-18T13:31:34;3.67;;;1.30;;
9465;SDS011;4771;48.726;9.006;2022-11-18T13:34:09;2.47;;;1.43;;
9465;SDS011;4771;48.726;9.006;2022-11-18T13:36:43;2.10;;;1.17;;
9465;SDS011;4771;48.726;9.006;2022-11-18T13:39:19;2.47;;;1.10;;
9465;SDS011;4771;48.726;9.006;2022-11-18T13:42:00;1.13;;;0.90;;
9465;SDS011;4771;48.726;9.006;2022-11-18T13:44:29;2.93;;;1.10;;
9465;SDS011;4771;48.726;9.006;2022-11-18T13:46:59;1.80;;;1.10;;
9465;SDS011;4771;48.726;9.006;2022-11-18T13:49:35;2.60;;;1.47;;
9465;SDS011;4771;48.726;9.006;2022-11-18T13:52:10;2.33;;;1.20;;
9465;SDS011;4771;48.726;9.006;2022-11-18T13:54:39;2.43;;;1.20;;
9465;SDS011;4771;48.726;9.006;2022-11-18T13:57:13;1.90;;;1.20;;
9465;SDS011;4771;48.726;9.006;2022-11-18T13:59:43;1.40;;;1.07;;
9465;SDS011;4771;48.726;9.006;2022-11-18T14:02:12;2.80;;;1.20;;
9465;SDS011;4771;48.726;9.006;2022-11-18T14:04:46;3.33;;;1.30;;
9465;SDS011;4771;48.726;9.006;2022-11-18T14:07:25;2.53;;;1.53;;
9465;SDS011;4771;48.726;9.006;2022-11-18T14:09:58;3.67;;;1.30;;
9465;SDS011;4771;48.726;9.006;2022-11-18T14:12:29;5.77;;;1.23;;
9465;SDS011;4771;48.726;9.006;2022-11-18T14:15:19;1.73;;;1.40;;
9465;SDS011;4771;48.726;9.006;2022-11-18T14:17:50;2.33;;;1.20;;
9465;SDS011;4771;48.726;9.006;2022-11-18T14:20:19;3.50;;;1.20;;
9465;SDS011;4771;48.726;9.006;2022-11-18T14:22:52;3.33;;;1.20;;
9465;SDS011;4771;48.726;9.006;2022-11-18T14:25:22;2.80;;;1.37;;
9465;SDS011;4771;48.726;9.006;2022-11-18T14:27:53;1.83;;;1.20;;
9465;SDS011;4771;48.726;9.006;2022-11-18T14:30:25;2.10;;;1.27;;
9465;SDS011;4771;48.726;9.006;2022-11-18T14:33:11;4.37;;;1.47;;
9465;SDS011;4771;48.726;9.006;2022-11-18T14:35:46;2.50;;;1.50;;
9465;SDS011;4771;48.726;9.006;2022-11-18T14:38:16;3.17;;;1.70;;
9465;SDS011;4771;48.726;9.006;2022-11-18T14:40:44;3.40;;;1.73;;
9465;SDS011;4771;48.726;9.006;2022-11-18T14:43:13;2.07;;;1.40;;
9465;SDS011;4771;48.726;9.006;2022-11-18T14:45:40;4.20;;;1.60;;
9465;SDS011;4771;48.726;9.006;2022-11-18T14:48:08;2.83;;;1.40;;
9465;SDS011;4771;48.726;9.006;2022-11-18T14:50:37;3.57;;;1.80;;
9465;SDS011;4771;48.726;9.006;2022-11-18T14:53:04;2.10;;;1.47;;
9465;SDS011;4771;48.726;9.006;2022-11-18T14:55:30;3.70;;;1.90;;
9465;SDS011;4771;48.726;9.006;2022-11-18T14:57:58;3.03;;;1.60;;
9465;SDS011;4771;48.726;9.006;2022-11-18T15:00:26;3.13;;;1.50;;
9465;SDS011;4771;48.726;9.006;2022-11-18T15:02:53;2.67;;;1.50;;
9465;SDS011;4771;48.726;9.006;2022-11-18T15:05:19;2.30;;;1.60;;
9465;SDS011;4771;48.726;9.006;2022-11-18T15:07:46;2.97;;;1.83;;
9465;SDS011;4771;48.726;9.006;2022-11-18T15:10:14;5.03;;;1.60;;
9465;SDS011;4771;48.726;9.006;2022-11-18T15:12:42;2.33;;;1.53;;
9465;SDS011;4771;48.726;9.006;2022-11-18T15:15:09;5.37;;;1.70;;
9465;SDS011;4771;48.726;9.006;2022-11-18T15:17:37;3.73;;;1.67;;
9465;SDS011;4771;48.726;9.006;2022-11-18T15:20:04;4.27;;;1.33;;
9465;SDS011;4771;48.726;9.006;2022-11-18T15:22:32;3.10;;;1.47;;
9465;SDS011;4771;48.726;9.006;2022-11-18T15:24:59;3.00;;;1.47;;
9465;SDS011;4771;48.726;9.006;2022-11-18T15:27:26;3.20;;;1.50;;
9465;SDS011;4771;48.726;9.006;2022-11-18T15:29:53;4.17;;;1.60;;
9465;SDS011;4771;48.726;9.006;2022-11-18T15:32:20;2.47;;;1.60;;
9465;SDS011;4771;48.726;9.006;2022-11-18T15:34:48;4.07;;;1.70;;
9465;SDS011;4771;48.726;9.006;2022-11-18T15:37:15;3.93;;;1.70;;
9465;SDS011;4771;48.726;9.006;2022-11-18T15:39:42;2.40;;;1.50;;
9465;SDS011;4771;48.726;9.006;2022-11-18T15:42:09;2.90;;;1.70;;
9465;SDS011;4771;48.726;9.006;2022-11-18T15:44:36;2.90;;;1.50;;
9465;SDS011;4771;48.726;9.006;2022-11-18T15:47:03;3.97;;;1.60;;
9465;SDS011;4771;48.726;9.006;2022-11-18T15:49:30;3.90;;;1.63;;
9465;SDS011;4771;48.726;9.006;2022-11-18T15:51:58;3.47;;;1.70;;
9465;SDS011;4771;48.726;9.006;2022-11-18T15:54:25;2.37;;;1.67;;
9465;SDS011;4771;48.726;9.006;2022-11-18T15:56:52;3.83;;;1.90;;